Time;durP1;ratioP1;P1;durP2;ratioP2;P2;SDS_P1;SDS_P2;PMS_P1;PMS_P2;Temp;Humidity;BMP_temperature;BMP_pressure;BME280_temperature;BME280_humidity;BME280_pressure;Samples;Min_cycle;Max_cycle;Signal;HPM_P1;HPM_P2
2022/05/24 00:01:41;;;;;;;6.22;1.17;;;;;;;21.47;44.40;100115.31;16133955;19;130864;-47
2022/05/24 00:07:03;;;;;;;3.50;1.08;;;;;;;21.46;44.37;100104.47;16130170;19;129354;-47
2022/05/24 00:12:25;;;;;;;3.67;1.23;;;;;;;21.45;44.28;100103.63;16132591;19;130483;-49
2022/05/24 00:17:54;;;;;;;5.95;1.30;;;;;;;21.45;44.29;100106.41;16132009;19;132049;-45
2022/05/24 00:23:17;;;;;;;4.78;0.82;;;;;;;21.42;44.19;100090.28;16132607;19;130568;-48
2022/05/24 00:28:39;;;;;;;3.78;1.20;;;;;;;21.41;44.36;100108.09;16132037;19;129872;-44
2022/05/24 00:34:01;;;;;;;4.15;0.70;;;;;;;21.41;43.84;100108.09;16128119;19;131143;-45
2022/05/24 00:39:22;;;;;;;4.95;0.95;;;;;;;21.41;43.99;100104.47;16131926;19;129659;-46
2022/05/24 00:44:53;;;;;;;2.42;0.80;;;;;;;21.40;43.99;100098.09;16132595;19;130360;-47
2022/05/24 00:50:24;;;;;;;6.55;1.15;;;;;;;21.39;44.23;100093.66;16129830;19;129865;-48
2022/05/24 00:55:54;;;;;;;3.75;0.90;;;;;;;21.37;43.69;100090.31;16123666;19;130510;-48
2022/05/24 01:01:31;;;;;;;2.22;0.80;;;;;;;21.38;43.77;100089.19;16141006;19;133130;-48
2022/05/24 01:06:52;;;;;;;3.88;0.90;;;;;;;21.35;43.49;100085.00;16144721;19;130490;-48
2022/05/24 01:12:23;;;;;;;2.00;1.00;;;;;;;21.35;43.91;100078.63;16145358;19;130597;-43
2022/05/24 01:17:47;;;;;;;5.00;0.90;;;;;;;21.34;43.78;100093.66;16139510;19;130587;-47
2022/05/24 01:23:30;;;;;;;7.13;1.08;;;;;;;21.32;44.04;100091.16;16143031;19;130035;-45
2022/05/24 01:29:05;;;;;;;5.13;0.70;;;;;;;21.32;43.67;100096.75;16144668;19;130106;-50
2022/05/24 01:40:09;;;;;;;4.05;0.90;;;;;;;21.29;43.71;100090.91;16140861;19;129822;-45
2022/05/24 01:45:37;;;;;;;2.13;0.70;;;;;;;21.28;43.43;100094.81;16143562;19;130449;-47
2022/05/24 01:51:01;;;;;;;2.75;1.02;;;;;;;21.27;43.89;100093.97;16142558;19;129923;-49
2022/05/24 01:56:32;;;;;;;4.83;0.83;;;;;;;21.28;43.55;100094.81;16137543;19;130531;-48
2022/05/24 02:01:57;;;;;;;2.67;0.82;;;;;;;21.26;43.54;100089.50;16142786;19;132044;-49
2022/05/24 02:07:23;;;;;;;1.50;0.60;;;;;;;21.26;43.52;100102.59;16142640;19;129768;-49
2022/05/24 02:12:51;;;;;;;3.75;0.82;;;;;;;21.26;43.55;100108.97;16142571;19;129814;-48
2022/05/24 02:18:20;;;;;;;2.70;0.80;;;;;;;21.26;43.40;100119.28;16138445;19;130201;-47
2022/05/24 02:23:49;;;;;;;3.30;0.80;;;;;;;21.24;43.33;100115.97;16141834;19;130426;-51
2022/05/24 02:29:11;;;;;;;2.95;0.68;;;;;;;21.22;43.68;100114.28;16139826;19;129724;-47
2022/05/24 02:34:34;;;;;;;2.08;0.50;;;;;;;21.21;43.41;100095.94;16137187;19;130468;-53
2022/05/24 02:45:37;;;;;;;2.22;0.57;;;;;;;21.19;43.28;100106.50;16138418;19;130572;-47
2022/05/24 02:50:59;;;;;;;0.60;0.32;;;;;;;21.19;43.49;100127.94;16139751;19;130298;-46
2022/05/24 02:56:21;;;;;;;1.67;0.52;;;;;;;21.17;43.00;100125.41;16134749;19;130505;-51
2022/05/24 03:01:43;;;;;;;2.60;0.80;;;;;;;21.17;42.92;100139.31;16136877;19;130981;-46
2022/05/24 03:18:24;;;;;;;1.88;0.40;;;;;;;21.15;42.76;100133.25;16132476;19;130659;-49
2022/05/24 03:23:46;;;;;;;2.97;0.77;;;;;;;21.15;42.69;100138.81;16133747;19;129903;-47
2022/05/24 03:29:08;;;;;;;1.05;0.40;;;;;;;21.14;43.20;100128.78;16135845;19;129461;-46
2022/05/24 03:34:29;;;;;;;2.88;0.75;;;;;;;21.14;42.64;100151.03;16132892;19;130376;-49
2022/05/24 03:39:51;;;;;;;1.75;0.40;;;;;;;21.12;42.75;100153.28;16135059;19;129895;-49
2022/05/24 03:45:18;;;;;;;1.52;0.50;;;;;;;21.12;42.66;100139.38;16133077;19;130526;-50
2022/05/24 03:50:40;;;;;;;2.28;0.45;;;;;;;21.11;42.98;100156.34;16133056;19;129827;-50
2022/05/24 03:56:02;;;;;;;1.20;0.40;;;;;;;21.10;42.76;100177.75;16130305;19;130507;-48
2022/05/24 04:01:24;;;;;;;0.95;0.30;;;;;;;21.09;42.51;100170.50;16126112;19;130813;-52
2022/05/24 04:06:46;;;;;;;0.77;0.30;;;;;;;21.09;42.74;100151.03;16132863;19;129947;-47
2022/05/24 04:12:08;;;;;;;1.98;0.40;;;;;;;21.07;42.47;100136.59;16131192;19;129918;-50
2022/05/24 04:17:30;;;;;;;0.90;0.40;;;;;;;21.07;42.65;100156.06;16134105;19;129044;-46
2022/05/24 04:22:54;;;;;;;1.80;0.50;;;;;;;21.06;42.35;100171.06;16132453;19;129556;-50
2022/05/24 04:28:19;;;;;;;1.17;0.38;;;;;;;21.05;42.33;100192.50;16131687;19;130269;-47
2022/05/24 04:33:41;;;;;;;1.25;0.30;;;;;;;21.06;42.62;100198.88;16151824;19;129985;-50
2022/05/24 04:39:03;;;;;;;2.00;0.75;;;;;;;21.03;42.53;100216.97;16162611;19;129942;-49
2022/05/24 04:44:25;;;;;;;2.00;0.40;;;;;;;21.04;42.73;100238.09;16163132;19;129781;-47
2022/05/24 04:49:53;;;;;;;0.77;0.40;;;;;;;21.03;42.25;100238.41;16160227;19;129875;-45
2022/05/24 04:55:15;;;;;;;2.28;0.57;;;;;;;21.03;42.39;100238.41;16157118;19;130844;-50
2022/05/24 05:00:38;;;;;;;2.47;0.57;;;;;;;21.02;42.11;100236.72;16160754;19;129654;-44
2022/05/24 05:06:01;;;;;;;1.75;0.40;;;;;;;21.00;42.20;100250.88;16159419;19;130588;-47
2022/05/24 05:11:23;;;;;;;0.77;0.40;;;;;;;21.00;42.52;100239.75;16160159;19;129201;-46
2022/05/24 05:16:44;;;;;;;2.97;0.40;;;;;;;20.99;42.09;100252.00;16155261;19;129996;-47
2022/05/24 05:22:07;;;;;;;6.93;0.70;;;;;;;20.99;42.06;100253.97;16156969;19;130629;-46
2022/05/24 05:27:29;;;;;;;5.90;0.50;;;;;;;20.98;42.08;100255.91;16159710;19;129705;-46
2022/05/24 05:32:52;;;;;;;3.35;0.40;;;;;;;21.00;41.86;100261.19;16159961;19;130265;-48
2022/05/24 05:38:14;;;;;;;6.32;0.60;;;;;;;21.05;42.00;100263.94;16160310;19;130342;-48
2022/05/24 05:43:35;;;;;;;3.42;0.55;;;;;;;21.11;41.71;100264.81;16144358;19;131848;-49
2022/05/24 05:48:59;;;;;;;2.00;0.52;;;;;;;21.16;41.54;100259.22;16142207;19;130730;-52
2022/05/24 05:54:26;;;;;;;2.80;0.52;;;;;;;21.22;41.47;100264.50;16136122;19;130509;-48
2022/05/24 05:59:48;;;;;;;4.07;0.50;;;;;;;21.31;41.29;100263.94;16133999;19;130622;-50
2022/05/24 06:05:10;;;;;;;3.53;0.50;;;;;;;21.37;41.07;100269.19;16137120;19;130881;-53
2022/05/24 06:10:34;;;;;;;4.38;0.47;;;;;;;21.43;41.08;100269.22;16139082;19;130153;-51
2022/05/24 06:15:56;;;;;;;5.05;0.50;;;;;;;21.45;40.99;100273.38;16136497;19;130584;-50
2022/05/24 06:21:17;;;;;;;1.40;0.40;;;;;;;21.49;40.99;100290.34;16137096;19;129659;-52
2022/05/24 06:26:39;;;;;;;3.28;0.60;;;;;;;21.51;40.90;100300.13;16137943;19;129839;-50
2022/05/24 06:32:03;;;;;;;3.90;0.80;;;;;;;21.53;41.11;100302.59;16136374;19;129953;-51
2022/05/24 06:37:25;;;;;;;2.28;0.60;;;;;;;21.54;40.94;100311.81;16132543;19;130258;-52
2022/05/24 06:42:46;;;;;;;8.93;0.60;;;;;;;21.56;40.99;100307.63;16137149;19;130305;-52
2022/05/24 06:48:11;;;;;;;1.80;0.40;;;;;;;21.60;40.61;100313.44;16134884;19;129833;-51
2022/05/24 06:53:34;;;;;;;2.70;0.50;;;;;;;21.58;41.00;100330.44;16129017;19;130268;-53
2022/05/24 07:04:38;;;;;;;4.15;0.60;;;;;;;21.54;40.40;100348.81;16139190;19;130133;-48
2022/05/24 07:10:00;;;;;;;1.33;0.40;;;;;;;21.53;40.75;100355.47;16146332;19;129340;-52
2022/05/24 07:15:22;;;;;;;2.45;0.40;;;;;;;21.51;40.58;100361.34;16141495;19;129607;-50
2022/05/24 07:20:44;;;;;;;1.63;0.40;;;;;;;21.51;40.80;100352.16;16136802;19;130277;-52
2022/05/24 07:26:17;;;;;;;2.22;0.50;;;;;;;21.54;40.18;100351.59;16144136;19;129620;-51
2022/05/24 07:31:58;;;;;;;2.65;0.63;;;;;;;21.56;40.71;100356.88;16136521;19;129938;-52
2022/05/24 07:37:22;;;;;;;2.50;0.40;;;;;;;21.61;40.48;100376.34;16136715;19;129801;-53
2022/05/24 07:48:30;;;;;;;1.33;0.38;;;;;;;21.64;40.69;100381.38;16143709;19;129425;-51
2022/05/24 07:53:52;;;;;;;1.00;0.50;;;;;;;21.65;40.58;100389.44;16140942;19;131564;-52
2022/05/24 07:59:14;;;;;;;2.67;0.30;;;;;;;21.62;40.65;100406.69;16144003;19;129637;-53
2022/05/24 08:04:36;;;;;;;0.85;0.38;;;;;;;21.60;40.65;100410.88;16142874;19;128922;-51
2022/05/24 08:09:58;;;;;;;1.75;0.43;;;;;;;21.61;40.61;100423.69;16138295;19;129307;-47
2022/05/24 08:15:19;;;;;;;0.82;0.30;;;;;;;21.58;40.36;100419.50;16139217;19;129083;-47
2022/05/24 08:20:41;;;;;;;1.17;0.30;;;;;;;21.61;40.47;100432.84;16134342;19;129344;-48
2022/05/24 08:26:03;;;;;;;2.45;0.50;;;;;;;21.60;40.42;100433.97;16138960;19;129274;-47
2022/05/24 08:31:25;;;;;;;0.65;0.30;;;;;;;21.62;40.20;100440.09;16135155;19;129127;-48
2022/05/24 08:36:47;;;;;;;3.28;0.40;;;;;;;21.61;40.19;100437.59;16132256;19;129141;-49
2022/05/24 08:42:14;;;;;;;3.25;0.30;;;;;;;21.63;40.23;100457.63;16136228;19;129557;-46
2022/05/24 08:53:53;;;;;;;1.58;0.50;;;;;;;21.61;40.28;100468.22;16134933;19;129104;-49
2022/05/24 08:59:25;;;;;;;1.13;0.38;;;;;;;21.63;40.17;100479.91;16133821;19;130406;-47
2022/05/24 09:04:47;;;;;;;1.30;0.25;;;;;;;21.59;39.95;100479.63;16130050;19;130339;-50
2022/05/24 09:10:33;;;;;;;2.63;0.35;;;;;;;21.60;40.09;100492.41;16128263;19;131171;-49
2022/05/24 09:16:01;;;;;;;0.47;0.10;;;;;;;21.63;39.70;100491.03;16128782;19;130081;-48
2022/05/24 09:21:29;;;;;;;3.67;0.35;;;;;;;21.64;40.19;100481.59;16145026;19;129645;-45
2022/05/24 09:27:10;;;;;;;0.85;0.30;;;;;;;21.66;40.12;100491.31;16134813;19;131741;-50
2022/05/24 09:32:39;;;;;;;1.05;0.30;;;;;;;21.67;39.63;100481.84;16145495;19;129396;-46
2022/05/24 09:38:03;;;;;;;0.60;0.20;;;;;;;21.64;39.90;100498.28;16144996;19;129668;-46
2022/05/24 09:43:33;;;;;;;1.02;0.40;;;;;;;21.64;39.46;100509.41;16150174;19;129359;-46
2022/05/24 09:49:00;;;;;;;2.15;0.40;;;;;;;21.65;39.76;100517.47;16149763;19;128916;-46
2022/05/24 09:54:28;;;;;;;2.78;0.50;;;;;;;21.66;39.44;100523.91;16150759;19;129917;-48
2022/05/24 10:00:03;;;;;;;3.10;0.40;;;;;;;21.65;39.28;100530.56;16149861;19;129428;-46
2022/05/24 10:05:25;;;;;;;2.50;0.30;;;;;;;21.64;39.50;100523.34;16148134;19;130268;-45
2022/05/24 10:10:56;;;;;;;1.17;0.30;;;;;;;21.65;39.13;100522.22;16149100;19;130370;-47
2022/05/24 10:16:33;;;;;;;2.72;0.30;;;;;;;21.67;39.33;100522.75;16147464;19;130086;-46
2022/05/24 10:22:33;;;;;;;1.38;0.30;;;;;;;21.63;38.88;100525.28;16149342;19;129263;-43
2022/05/24 10:28:28;;;;;;;3.40;0.47;;;;;;;21.62;38.96;100533.91;16142569;19;129421;-48
2022/05/24 10:39:48;;;;;;;2.53;0.43;;;;;;;21.62;38.81;100542.25;16148016;19;129254;-49
2022/05/24 10:45:17;;;;;;;0.75;0.22;;;;;;;21.64;38.90;100546.44;16139425;19;130862;-46
2022/05/24 10:50:44;;;;;;;1.35;0.30;;;;;;;21.63;39.08;100552.28;16141400;19;129074;-43
2022/05/24 10:56:21;;;;;;;1.10;0.32;;;;;;;21.66;38.96;100551.75;16143940;19;129882;-49
2022/05/24 11:01:50;;;;;;;2.55;0.38;;;;;;;21.65;38.96;100544.50;16139068;19;131380;-50
2022/05/24 11:07:17;;;;;;;0.73;0.20;;;;;;;21.67;38.95;100547.81;16142698;19;129031;-45
2022/05/24 11:12:52;;;;;;;3.38;0.60;;;;;;;21.64;39.02;100543.66;16146376;19;129414;-49
2022/05/24 11:18:17;;;;;;;1.58;0.60;;;;;;;21.58;39.18;100571.75;16140752;19;128956;-44
2022/05/24 11:23:48;;;;;;;1.47;0.37;;;;;;;21.56;38.84;100591.53;16140516;19;133437;-47
2022/05/24 11:29:30;;;;;;;2.42;0.70;;;;;;;21.64;38.76;100587.38;16145648;19;129297;-44
2022/05/24 11:35:07;;;;;;;2.75;0.85;;;;;;;21.66;38.18;100580.41;16143920;19;129151;-48
2022/05/24 11:40:31;;;;;;;2.97;0.70;;;;;;;21.66;38.28;100582.38;16142242;19;129878;-49
2022/05/24 11:45:57;;;;;;;2.58;0.90;;;;;;;21.69;38.40;100579.00;16143667;19;129200;-46
2022/05/24 11:51:31;;;;;;;1.95;0.60;;;;;;;21.64;38.75;100570.66;16143508;19;129959;-47
2022/05/24 11:57:01;;;;;;;1.85;0.70;;;;;;;21.62;38.56;100611.84;16135287;19;129970;-46
2022/05/24 12:02:33;;;;;;;4.10;1.02;;;;;;;21.57;38.80;100632.16;16140873;19;129674;-49
2022/05/24 12:08:04;;;;;;;1.85;0.60;;;;;;;21.57;38.78;100650.78;16142999;19;130147;-47
2022/05/24 12:13:38;;;;;;;2.20;0.70;;;;;;;21.59;38.78;100651.38;16142797;19;129591;-47
2022/05/24 12:19:03;;;;;;;4.30;0.60;;;;;;;21.58;38.50;100644.13;16136270;19;129697;-44
2022/05/24 12:24:24;;;;;;;1.55;0.52;;;;;;;21.56;38.62;100640.78;16141206;19;129113;-46
2022/05/24 12:30:23;;;;;;;2.03;0.70;;;;;;;21.58;38.71;100644.13;16140381;19;129529;-47
2022/05/24 12:35:59;;;;;;;2.22;0.50;;;;;;;21.55;38.71;100637.16;16138600;19;129148;-48
2022/05/24 12:41:32;;;;;;;0.90;0.40;;;;;;;21.54;38.87;100638.28;16137782;19;129170;-49
2022/05/24 12:46:58;;;;;;;2.28;0.55;;;;;;;21.61;38.77;100636.06;16136085;19;130027;-48
2022/05/24 12:52:25;;;;;;;0.95;0.43;;;;;;;21.68;39.02;100649.72;16140929;19;129317;-46
2022/05/24 12:57:47;;;;;;;1.15;0.50;;;;;;;21.68;38.75;100655.28;16142124;19;129961;-52
2022/05/24 13:03:22;;;;;;;1.95;0.40;;;;;;;21.68;38.78;100655.28;16148422;19;130068;-50
2022/05/24 13:08:44;;;;;;;0.95;0.40;;;;;;;21.64;38.81;100652.22;16152880;19;129331;-49
2022/05/24 13:14:29;;;;;;;3.55;0.60;;;;;;;21.71;38.46;100660.31;16149477;19;130695;-49
2022/05/24 13:19:53;;;;;;;1.45;0.60;;;;;;;21.75;38.61;100663.38;16146918;19;129308;-48
2022/05/24 13:25:25;;;;;;;1.73;0.38;;;;;;;21.77;38.40;100656.44;16151472;19;129773;-49
2022/05/24 13:36:41;;;;;;;1.85;0.50;;;;;;;21.79;38.52;100659.75;16147641;19;129257;-49
2022/05/24 13:42:07;;;;;;;0.98;0.32;;;;;;;21.81;38.64;100668.69;16151376;19;131708;-47
2022/05/24 13:47:54;;;;;;;1.40;0.50;;;;;;;21.83;38.39;100685.13;16150435;19;128944;-49
2022/05/24 13:53:48;;;;;;;1.77;0.30;;;;;;;21.80;38.68;100677.31;16150834;19;129342;-44
2022/05/24 13:59:22;;;;;;;1.30;0.40;;;;;;;21.78;38.12;100694.31;16136937;19;129051;-51
2022/05/24 14:04:45;;;;;;;1.20;0.40;;;;;;;21.73;38.41;100699.84;16138826;19;129056;-45
2022/05/24 14:10:07;;;;;;;0.30;0.20;;;;;;;21.72;38.18;100702.94;16139526;19;130859;-48
2022/05/24 14:15:28;;;;;;;1.95;0.43;;;;;;;21.74;37.88;100709.03;16139340;19;129219;-49
2022/05/24 14:20:50;;;;;;;0.73;0.30;;;;;;;21.76;37.90;100698.47;16140426;19;129477;-48
2022/05/24 14:26:12;;;;;;;0.40;0.20;;;;;;;21.79;38.14;100717.41;16140213;19;129156;-49
2022/05/24 14:31:35;;;;;;;0.20;0.13;;;;;;;21.81;37.87;100707.66;16140742;19;131233;-45
2022/05/24 14:36:57;;;;;;;0.98;0.17;;;;;;;21.77;38.21;100714.06;16146252;19;129586;-46
2022/05/24 14:42:20;;;;;;;2.30;0.30;;;;;;;21.75;38.09;100725.50;16140031;19;128974;-49
2022/05/24 14:47:42;;;;;;;0.85;0.30;;;;;;;21.73;38.28;100730.50;16147049;19;128859;-44
2022/05/24 14:53:06;;;;;;;0.73;0.32;;;;;;;21.73;38.23;100738.84;16146407;19;129020;-48
2022/05/24 14:58:27;;;;;;;1.77;0.30;;;;;;;21.71;38.28;100748.59;16140744;19;129520;-50
2022/05/24 15:03:49;;;;;;;1.10;0.20;;;;;;;21.71;38.29;100779.22;16146239;19;129073;-51
2022/05/24 15:20:34;;;;;;;0.60;0.25;;;;;;;21.69;37.91;100790.59;16138956;19;132965;-47
2022/05/24 15:26:01;;;;;;;0.75;0.20;;;;;;;21.71;37.69;100799.53;16142875;19;130187;-46
2022/05/24 15:31:24;;;;;;;1.17;0.20;;;;;;;21.75;38.12;100794.25;16140166;19;130501;-47
2022/05/24 15:36:46;;;;;;;1.67;0.28;;;;;;;21.77;38.01;100792.88;16137995;19;130419;-50
2022/05/24 15:42:08;;;;;;;1.40;0.30;;;;;;;21.79;37.70;100804.56;16138694;19;129526;-50
2022/05/24 15:47:31;;;;;;;1.42;0.40;;;;;;;21.77;38.22;100812.38;16141530;19;130238;-49
2022/05/24 15:52:58;;;;;;;0.70;0.30;;;;;;;21.80;38.02;100814.59;16142283;19;129812;-45
2022/05/24 15:58:21;;;;;;;2.67;0.60;;;;;;;21.82;38.75;100817.94;16136751;19;129077;-47
2022/05/24 16:03:45;;;;;;;2.40;0.70;;;;;;;21.84;38.69;100817.69;16135418;19;129796;-46
2022/05/24 16:14:55;;;;;;;9.35;0.73;;;;;;;21.91;39.41;100817.44;16138026;19;129690;-48
2022/05/24 16:20:17;;;;;;;3.40;0.70;;;;;;;21.94;39.91;100826.09;16128227;19;129501;-51
2022/05/24 16:25:39;;;;;;;3.92;0.40;;;;;;;21.91;40.35;100814.66;16133976;19;130457;-46
2022/05/24 16:31:01;;;;;;;3.72;0.50;;;;;;;21.91;40.40;100825.81;16132745;19;129447;-48
2022/05/24 16:36:25;;;;;;;3.03;0.60;;;;;;;21.96;40.70;100825.81;16128699;19;130460;-49
2022/05/24 16:41:50;;;;;;;2.88;0.60;;;;;;;21.99;40.57;100819.72;16130013;19;129177;-47
2022/05/24 16:47:11;;;;;;;6.57;0.50;;;;;;;22.07;40.55;100813.59;16132782;19;130258;-46
2022/05/24 16:52:35;;;;;;;5.00;0.45;;;;;;;22.07;40.20;100824.75;16138783;19;129452;-49
2022/05/24 17:03:36;;;;;;;3.53;0.50;;;;;;;22.00;40.47;100826.97;16135149;19;128962;-48
2022/05/24 17:08:58;;;;;;;5.40;0.40;;;;;;;21.97;40.31;100833.06;16136202;19;130110;-47
2022/05/24 17:14:20;;;;;;;1.27;0.50;;;;;;;21.95;40.33;100850.06;16133358;19;130322;-45
2022/05/24 17:19:42;;;;;;;7.82;0.73;;;;;;;21.91;40.18;100850.88;16130092;19;129522;-47
2022/05/24 17:25:05;;;;;;;9.82;0.73;;;;;;;21.89;40.38;100853.91;16133003;19;129664;-49
2022/05/24 17:30:29;;;;;;;3.63;0.43;;;;;;;21.88;40.62;100871.72;16135868;19;128902;-46
2022/05/24 17:35:51;;;;;;;3.58;0.40;;;;;;;21.90;40.32;100871.47;16135106;19;130677;-45
2022/05/24 17:41:17;;;;;;;0.88;0.20;;;;;;;21.93;40.11;100857.00;16143336;19;129195;-45
2022/05/24 17:46:39;;;;;;;14.82;0.90;;;;;;;21.93;40.42;100857.84;16148221;19;130702;-48
2022/05/24 17:52:21;;;;;;;8.30;0.68;;;;;;;21.94;40.51;100869.81;16147064;19;129326;-49
2022/05/24 17:57:43;;;;;;;12.10;0.60;;;;;;;21.93;40.50;100874.56;16142895;19;129227;-51
2022/05/24 18:03:05;;;;;;;1.75;0.43;;;;;;;21.91;40.92;100878.72;16146236;19;129862;-48
2022/05/24 18:08:27;;;;;;;7.57;0.60;;;;;;;21.89;40.97;100883.72;16149145;19;130210;-49
2022/05/24 18:13:49;;;;;;;5.82;0.50;;;;;;;21.86;41.12;100885.06;16149652;19;130579;-46
2022/05/24 18:19:11;;;;;;;6.93;1.20;;;;;;;21.82;40.85;100895.94;16144028;19;130902;-48
2022/05/24 18:24:44;;;;;;;7.07;0.60;;;;;;;21.82;41.28;100901.50;16146685;19;129256;-46
2022/05/24 18:36:00;;;;;;;5.65;0.50;;;;;;;21.77;40.91;100906.19;16140273;19;129458;-46
2022/05/24 18:41:22;;;;;;;9.00;0.65;;;;;;;21.76;41.45;100912.88;16142773;19;130372;-48
2022/05/24 18:46:44;;;;;;;2.15;0.50;;;;;;;21.75;41.18;100923.19;16144377;19;130454;-46
2022/05/24 18:52:07;;;;;;;8.40;0.63;;;;;;;21.74;41.31;100929.00;16140296;19;129966;-47
2022/05/24 18:57:29;;;;;;;5.63;0.68;;;;;;;21.73;41.52;100930.97;16142806;19;129842;-49
2022/05/24 19:02:53;;;;;;;6.85;1.00;;;;;;;21.71;41.21;100944.31;16148156;19;129535;-45
2022/05/24 19:08:15;;;;;;;2.97;0.50;;;;;;;21.70;41.75;100936.22;16142696;19;129457;-44
2022/05/24 19:13:38;;;;;;;6.90;0.63;;;;;;;21.68;41.37;100950.41;16138264;19;130495;-47
2022/05/24 19:19:00;;;;;;;8.63;0.60;;;;;;;21.66;41.55;100961.81;16132056;19;130064;-47
2022/05/24 19:24:23;;;;;;;7.80;0.70;;;;;;;21.65;41.39;100962.09;16141281;19;128982;-47
2022/05/24 19:29:46;;;;;;;10.85;0.65;;;;;;;21.65;41.70;100973.22;16142598;19;129140;-46
2022/05/24 19:35:08;;;;;;;4.53;0.40;;;;;;;21.62;41.92;100974.56;16136837;19;129829;-45
2022/05/24 19:46:10;;;;;;;1.80;0.40;;;;;;;21.60;42.09;100995.44;16141745;19;129677;-45
2022/05/24 19:51:33;;;;;;;26.08;1.20;;;;;;;21.59;41.86;100996.53;16137200;19;129976;-47
2022/05/24 19:56:55;;;;;;;9.20;0.77;;;;;;;21.56;41.96;101008.19;16139254;19;129030;-51
2022/05/24 20:02:17;;;;;;;11.00;0.65;;;;;;;21.55;41.91;101012.94;16136515;19;129704;-45
2022/05/24 20:07:43;;;;;;;5.60;0.50;;;;;;;21.54;42.05;101024.34;16136929;19;130646;-47
2022/05/24 20:13:07;;;;;;;5.30;0.60;;;;;;;21.54;42.39;101033.53;16133580;19;129673;-48
2022/05/24 20:18:29;;;;;;;2.40;0.40;;;;;;;21.52;42.20;101031.03;16127811;19;129948;-46
2022/05/24 20:23:51;;;;;;;26.67;1.08;;;;;;;21.52;42.14;101041.31;16131552;19;130447;-44
2022/05/24 20:29:13;;;;;;;4.40;0.77;;;;;;;21.52;42.62;101055.22;16128178;19;130481;-44
2022/05/24 20:34:39;;;;;;;5.68;0.73;;;;;;;21.55;42.54;101062.19;16129548;19;130157;-49
2022/05/24 20:40:01;;;;;;;11.63;0.75;;;;;;;21.54;42.52;101066.09;16121844;19;129841;-51
2022/05/24 20:45:23;;;;;;;12.05;1.25;;;;;;;21.48;42.37;101066.00;16120783;19;133382;-49
2022/05/24 20:50:45;;;;;;;9.23;0.88;;;;;;;21.44;42.06;101067.63;16123289;19;130831;-47
2022/05/24 20:56:08;;;;;;;12.32;0.60;;;;;;;21.42;42.11;101071.78;16122437;19;131203;-46
2022/05/24 21:01:31;;;;;;;4.93;0.75;;;;;;;21.38;42.05;101079.81;16121797;19;130315;-44
2022/05/24 21:06:54;;;;;;;8.13;0.77;;;;;;;21.37;42.24;101069.78;16126453;19;130063;-47
2022/05/24 21:12:17;;;;;;;7.68;0.85;;;;;;;21.35;42.32;101058.06;16119649;19;129879;-47
2022/05/24 21:17:39;;;;;;;4.25;0.60;;;;;;;21.34;42.52;101059.19;16135659;19;129524;-47
2022/05/24 21:23:01;;;;;;;5.72;0.60;;;;;;;21.32;41.97;101069.72;16145825;19;129227;-46
2022/05/24 21:28:36;;;;;;;3.17;0.45;;;;;;;21.31;42.44;101073.59;16149865;19;129878;-47
2022/05/24 21:33:58;;;;;;;0.83;0.40;;;;;;;21.28;42.30;101068.59;16144649;19;130726;-47
2022/05/24 21:39:20;;;;;;;0.80;0.40;;;;;;;21.26;42.19;101084.69;16137598;19;129369;-45
2022/05/24 21:44:41;;;;;;;3.78;0.40;;;;;;;21.25;42.13;101091.34;16141641;19;129066;-48
2022/05/24 21:50:04;;;;;;;3.67;0.40;;;;;;;21.24;42.15;101095.25;16140102;19;129306;-46
2022/05/24 21:55:26;;;;;;;4.28;0.40;;;;;;;21.21;42.47;101094.66;16143562;19;129703;-48
2022/05/24 22:00:56;;;;;;;3.10;0.35;;;;;;;21.22;42.17;101109.44;16135432;19;130348;-47
2022/05/24 22:06:20;;;;;;;1.38;0.38;;;;;;;21.20;42.41;101114.41;16138814;19;129855;-47
2022/05/24 22:11:41;;;;;;;1.45;0.30;;;;;;;21.20;42.26;101118.00;16138468;19;130574;-49
2022/05/24 22:17:08;;;;;;;2.33;0.45;;;;;;;21.19;41.95;101123.84;16135074;19;130836;-46
2022/05/24 22:22:30;;;;;;;1.85;0.22;;;;;;;21.16;42.00;101125.22;16134311;19;130915;-44
2022/05/24 22:27:52;;;;;;;1.65;0.57;;;;;;;21.16;42.07;101129.91;16136419;19;130297;-48
2022/05/24 22:33:15;;;;;;;1.15;0.35;;;;;;;21.13;42.38;101134.06;16138387;19;129813;-44
2022/05/24 22:38:37;;;;;;;2.58;0.45;;;;;;;21.13;42.41;101136.84;16135784;19;130560;-46
2022/05/24 22:43:59;;;;;;;0.52;0.20;;;;;;;21.12;42.51;101149.06;16137455;19;129192;-44
2022/05/24 22:49:20;;;;;;;0.57;0.20;;;;;;;21.12;42.47;101154.63;16137547;19;130383;-47
2022/05/24 22:54:42;;;;;;;1.23;0.20;;;;;;;21.11;41.94;101152.94;16137895;19;129416;-48
2022/05/24 23:00:06;;;;;;;2.65;0.25;;;;;;;21.12;42.03;101160.19;16132933;19;129907;-48
2022/05/24 23:05:28;;;;;;;0.13;0.10;;;;;;;21.10;42.03;101151.28;16140025;19;129141;-46
2022/05/24 23:10:49;;;;;;;0.70;0.20;;;;;;;21.10;42.08;101161.56;16143856;19;129361;-50
2022/05/24 23:16:12;;;;;;;0.85;0.10;;;;;;;21.08;42.45;101166.53;16136509;19;129710;-49
2022/05/24 23:21:34;;;;;;;2.13;0.30;;;;;;;21.05;42.38;101174.31;16134248;19;129909;-47
2022/05/24 23:26:56;;;;;;;0.20;0.10;;;;;;;21.04;42.41;101174.56;16136311;19;130705;-46
2022/05/24 23:32:18;;;;;;;0.90;0.10;;;;;;;21.03;42.46;101173.72;16135947;19;129809;-46
2022/05/24 23:37:40;;;;;;;0.10;0.10;;;;;;;21.05;42.17;101173.44;16132766;19;130500;-44
2022/05/24 23:43:03;;;;;;;0.20;0.03;;;;;;;21.03;42.12;101170.09;16134488;19;130426;-47
2022/05/24 23:48:25;;;;;;;1.48;0.30;;;;;;;21.01;42.14;101175.06;16135281;19;129722;-45
2022/05/24 23:53:46;;;;;;;0.20;0.13;;;;;;;21.01;42.13;101183.41;16134852;19;130001;-45
2022/05/24 23:59:09;;;;;;;0.20;0.10;;;;;;;21.00;42.01;101184.50;16134995;19;129853;-47
